TimeAST,TemperatureF,Dew PointF,Humidity,Sea Level PressureIn,VisibilityMPH,Wind Direction,Wind SpeedMPH,Gust SpeedMPH,PrecipitationIn,Events,Conditions,WindDirDegrees,DateUTC
12:00 AM,84.2,73.4,70,29.86,-9999.0,North,-9999.0,-,N/A,,Partly Cloudy,0,2011-10-06 04:00:00
1:00 AM,82.4,75.2,79,29.83,-9999.0,North,-9999.0,-,N/A,,Unknown,0,2011-10-06 05:00:00
2:00 AM,83,74,69,,,Calm,Calm,,,,Clear,,2011-10-06 06:00:00
2:00 AM,82.4,75.2,79,29.80,-9999.0,North,-9999.0,-,N/A,,Unknown,0,2011-10-06 06:00:00
3:00 AM,82.4,75.2,79,29.80,-9999.0,North,-9999.0,-,N/A,,Unknown,0,2011-10-06 07:00:00
4:00 AM,82.4,75.2,79,29.80,-9999.0,North,-9999.0,-,N/A,,Unknown,0,2011-10-06 08:00:00
5:00 AM,81,75,78,,,Calm,Calm,,,,Clear,,2011-10-06 09:00:00
5:00 AM,80.6,75.2,84,29.80,-9999.0,North,-9999.0,-,N/A,,Unknown,0,2011-10-06 09:00:00
6:00 AM,80.6,75.2,84,29.83,-9999.0,North,-9999.0,-,N/A,,Unknown,0,2011-10-06 10:00:00
7:00 AM,84.2,75.2,74,29.83,-9999.0,North,-9999.0,-,N/A,,Unknown,0,2011-10-06 11:00:00
8:00 AM,83,75,72,,,Calm,Calm,,,,,10,2011-10-06 12:00:00
8:00 AM,86.0,75.2,70,29.86,-9999.0,North,-9999.0,-,N/A,,Unknown,0,2011-10-06 12:00:00
9:00 AM,86.0,75.2,70,29.86,6.2,East,15.0,-,N/A,,Scattered Clouds,100,2011-10-06 13:00:00
10:00 AM,87.8,75.2,66,29.89,-9999.0,North,-9999.0,-,N/A,,Unknown,0,2011-10-06 14:00:00
11:00 AM,89,76,57,29.90,25,East,16.1,,,,Partly Cloudy,100,2011-10-06 15:00:00
11:00 AM,87.8,75.2,66,29.89,6.2,East,16.1,-,N/A,,Scattered Clouds,100,2011-10-06 15:00:00
12:00 PM,87.8,75.2,66,29.86,6.2,ESE,15.0,-,N/A,,Mostly Cloudy,110,2011-10-06 16:00:00
1:00 PM,75.2,75.2,100,29.86,1.2,SSE,15.0,26.5,N/A,Rain,Heavy Rain Showers,160,2011-10-06 17:00:00
2:00 PM,83,83,98,29.83,16,East,11.5,,,Fog,Light Fog,90,2011-10-06 18:00:00
2:00 PM,82.4,75.2,79,29.80,6.2,East,11.5,-,N/A,,Scattered Clouds,90,2011-10-06 18:00:00
3:00 PM,86.0,77.0,74,29.80,6.2,East,17.3,-,N/A,,Scattered Clouds,100,2011-10-06 19:00:00
4:00 PM,87.8,77.0,70,29.77,-9999.0,North,-9999.0,-,N/A,,Unknown,0,2011-10-06 20:00:00
5:00 PM,84.2,75.2,74,29.77,6.2,East,17.3,-,N/A,,Scattered Clouds,100,2011-10-06 21:00:00
6:00 PM,84.2,75.2,74,29.80,6.2,East,16.1,-,N/A,,Scattered Clouds,100,2011-10-06 22:00:00
7:00 PM,82.4,75.2,79,29.80,-9999.0,North,-9999.0,-,N/A,,Unknown,0,2011-10-06 23:00:00
10:00 PM,82.4,75.2,79,29.86,-9999.0,North,-9999.0,-,N/A,,Unknown,0,2011-10-07 02:00:00
11:00 PM,82.4,77.0,84,29.86,-9999.0,North,-9999.0,-,N/A,,Unknown,0,2011-10-07 03:00:00